createdAt,value
2022-10-23T00:02:59.545Z,100200.34
2022-10-23T00:08:01.019Z,100208.97
2022-10-23T00:13:02.721Z,100210.66
2022-10-23T00:18:04.279Z,100211.53
2022-10-23T00:23:05.650Z,100203.50
2022-10-23T00:28:07.020Z,100211.38
2022-10-23T00:33:09.111Z,100199.50
2022-10-23T00:38:10.602Z,100200.59
2022-10-23T00:43:23.166Z,100198.59
2022-10-23T00:48:25.479Z,100200.28
2022-10-23T00:53:26.859Z,100201.63
2022-10-23T00:58:28.277Z,100197.84
2022-10-23T01:03:29.637Z,100212.06
2022-10-23T01:08:39.913Z,100200.72
2022-10-23T01:14:00.173Z,100200.72
2022-10-23T01:19:08.030Z,100199.28
2022-10-23T01:24:29.416Z,100197.84
2022-10-23T01:29:39.588Z,100203.44
2022-10-23T01:34:46.256Z,100201.38
2022-10-23T01:39:49.744Z,100195.72
2022-10-23T01:44:57.029Z,100202.75
2022-10-23T01:49:58.477Z,100206.72
2022-10-23T01:55:00.356Z,100202.75
2022-10-23T02:00:06.550Z,100199.66
2022-10-23T02:05:14.834Z,100201.91
2022-10-23T02:10:16.198Z,100191.34
2022-10-23T02:15:40.433Z,100197.16
2022-10-23T02:21:05.628Z,100187.50
2022-10-23T02:26:26.804Z,100190.44
2022-10-23T02:31:28.160Z,100178.94
2022-10-23T02:36:29.546Z,100186.28
2022-10-23T02:41:54.279Z,100179.31
2022-10-23T02:47:20.896Z,100179.31
2022-10-23T02:52:50.202Z,100174.06
2022-10-23T02:58:29.060Z,100171.34
2022-10-23T03:03:33.261Z,100177.31
2022-10-23T03:08:42.581Z,100178.69
2022-10-23T03:13:43.936Z,100173.03
2022-10-23T03:18:45.330Z,100176.81
2022-10-23T03:23:46.696Z,100179.97
2022-10-23T03:28:48.061Z,100173.63
2022-10-23T03:33:49.425Z,100168.63
2022-10-23T03:38:50.804Z,100171.03
2022-10-23T03:43:52.203Z,100178.34
2022-10-23T03:48:53.580Z,100177.72
2022-10-23T03:53:54.980Z,100178.47
2022-10-23T03:58:56.373Z,100171.59
2022-10-23T04:03:57.748Z,100182.50
2022-10-23T04:08:59.144Z,100184.75
2022-10-23T04:14:00.546Z,100172.19
2022-10-23T04:19:01.912Z,100167.13
2022-10-23T04:24:03.556Z,100167.19
2022-10-23T04:29:04.952Z,100162.34
2022-10-23T04:39:07.612Z,100176.13
2022-10-23T04:44:08.989Z,100167.97
2022-10-23T04:49:10.353Z,100164.03
2022-10-23T04:54:11.793Z,100168.19
2022-10-23T04:59:13.151Z,100181.34
2022-10-23T05:04:14.522Z,100178.69
2022-10-23T05:09:15.882Z,100176.41
2022-10-23T05:14:20.611Z,100165.91
2022-10-23T05:19:27.640Z,100179.31
2022-10-23T05:24:29.615Z,100183.94
2022-10-23T05:29:30.986Z,100167.19
2022-10-23T05:34:33.088Z,100174.91
2022-10-23T05:39:34.445Z,100170.22
2022-10-23T05:44:36.646Z,100162.28
2022-10-23T05:49:38.005Z,100156.88
2022-10-23T05:54:39.373Z,100159.84
2022-10-23T05:59:40.740Z,100160.22
2022-10-23T06:04:42.108Z,100168.44
2022-10-23T06:09:43.487Z,100163.44
2022-10-23T06:14:44.846Z,100168.91
2022-10-23T06:19:46.233Z,100171.56
2022-10-23T06:24:47.594Z,100158.19
2022-10-23T06:29:48.948Z,100166.13
2022-10-23T06:34:50.312Z,100169.91
2022-10-23T06:39:51.670Z,100176.41
2022-10-23T06:44:53.024Z,100176.88
2022-10-23T06:49:54.472Z,100177.25
2022-10-23T06:54:55.832Z,100179.59
2022-10-23T06:59:57.197Z,100183.75
2022-10-23T07:04:58.566Z,100184.06
2022-10-23T07:09:59.954Z,100182.19
2022-10-23T07:15:01.345Z,100182.63
2022-10-23T07:20:02.718Z,100194.44
2022-10-23T07:25:04.340Z,100182.94
2022-10-23T07:30:06.109Z,100189.13
2022-10-23T07:35:07.911Z,100187.25
2022-10-23T07:40:09.673Z,100181.41
2022-10-23T07:45:11.280Z,100167.06
2022-10-23T07:50:12.637Z,100174.16
2022-10-23T07:55:14.112Z,100173.50
2022-10-23T08:00:15.506Z,100163.44
2022-10-23T08:05:19.302Z,100170.91
2022-10-23T08:10:20.771Z,100175.81
2022-10-23T08:15:22.137Z,100184.59
2022-10-23T08:20:23.639Z,100184.00
2022-10-23T08:25:26.070Z,100175.38
2022-10-23T08:30:27.848Z,100168.88
2022-10-23T08:35:29.237Z,100164.72
2022-10-23T08:40:30.589Z,100165.69
2022-10-23T08:45:47.142Z,100160.91
2022-10-23T08:50:55.324Z,100162.59
2022-10-23T08:56:02.509Z,100152.81
2022-10-23T09:01:21.574Z,100156.31
2022-10-23T09:06:37.749Z,100149.41
2022-10-23T09:11:47.216Z,100132.38
2022-10-23T09:17:33.997Z,100146.25
2022-10-23T09:22:35.354Z,100132.09
2022-10-23T09:27:36.716Z,100121.34
2022-10-23T09:32:38.119Z,100134.13
2022-10-23T09:37:45.958Z,100140.56
2022-10-23T09:43:14.261Z,100138.53
2022-10-23T09:48:17.857Z,100143.72
2022-10-23T09:53:25.316Z,100141.84
2022-10-23T09:58:35.508Z,100132.38
2022-10-23T10:03:37.240Z,100130.94
2022-10-23T10:08:48.837Z,100126.94
2022-10-23T10:13:59.037Z,100135.56
2022-10-23T10:19:30.360Z,100126.34
2022-10-23T10:25:02.340Z,100111.28
2022-10-23T10:30:14.025Z,100110.00
2022-10-23T10:35:48.090Z,100105.97
2022-10-23T10:41:20.645Z,100093.63
2022-10-23T10:46:30.214Z,100089.88
2022-10-23T10:51:44.366Z,100078.25
2022-10-23T10:56:45.868Z,100077.88
2022-10-23T11:02:12.744Z,100067.00
2022-10-23T11:07:15.368Z,100062.97
2022-10-23T11:12:24.851Z,100064.25
2022-10-23T11:17:40.030Z,100058.59
2022-10-23T11:22:52.959Z,100054.66
2022-10-23T11:28:18.991Z,100041.88
2022-10-23T11:33:41.406Z,100036.81
2022-10-23T11:38:49.556Z,100029.31
2022-10-23T11:44:01.288Z,100022.94
2022-10-23T11:49:05.692Z,100025.06
2022-10-23T11:54:09.880Z,100014.03
2022-10-23T11:59:27.827Z,100012.50
2022-10-23T12:04:39.653Z,100009.44
2022-10-23T12:09:44.773Z,100018.19
2022-10-23T12:14:49.929Z,100008.34
2022-10-23T12:20:02.705Z,100001.25
2022-10-23T12:25:08.972Z,99991.41
2022-10-23T12:30:24.685Z,99979.47
2022-10-23T12:35:49.928Z,99974.34
2022-10-23T12:40:52.532Z,99958.25
2022-10-23T12:45:54.492Z,99948.78
2022-10-23T12:50:56.000Z,99942.28
2022-10-23T13:01:07.112Z,99940.63
2022-10-23T13:06:09.777Z,99931.84
2022-10-23T13:11:15.324Z,99924.28
2022-10-23T13:16:18.076Z,99920.59
2022-10-23T13:21:23.757Z,99910.88
2022-10-23T13:26:35.730Z,99907.91
2022-10-23T13:31:37.084Z,99907.19
2022-10-23T13:36:39.428Z,99906.50
2022-10-23T13:41:45.024Z,99905.19
2022-10-23T13:46:46.500Z,99902.09
2022-10-23T13:51:52.547Z,99892.50
2022-10-23T13:56:54.068Z,99895.59
2022-10-23T14:01:55.620Z,99888.84
2022-10-23T14:06:58.378Z,99882.81
2022-10-23T14:11:59.766Z,99882.56
2022-10-23T14:17:01.141Z,99880.31
2022-10-23T14:22:02.644Z,99862.44
2022-10-23T14:27:04.047Z,99870.13
2022-10-23T14:32:05.428Z,99869.03
2022-10-23T14:37:09.112Z,99846.78
2022-10-23T14:42:10.780Z,99850.44
2022-10-23T14:47:12.141Z,99846.31
2022-10-23T14:52:13.504Z,99849.41
2022-10-23T14:57:16.610Z,99838.75
2022-10-23T15:02:18.032Z,99838.41
2022-10-23T15:07:19.432Z,99816.97
2022-10-23T15:12:21.053Z,99811.72
2022-10-23T15:17:22.456Z,99816.72
2022-10-23T15:22:23.908Z,99810.19
2022-10-23T15:27:25.284Z,99813.41
2022-10-23T15:32:26.655Z,99809.00
2022-10-23T15:37:28.025Z,99801.19
2022-10-23T15:42:29.400Z,99800.25
2022-10-23T15:47:30.768Z,99798.38
2022-10-23T15:52:32.129Z,99810.41
2022-10-23T15:57:33.484Z,99801.91
2022-10-23T16:02:35.051Z,99787.00
2022-10-23T16:07:36.529Z,99799.94
2022-10-23T16:12:37.893Z,99786.53
2022-10-23T16:17:39.276Z,99789.53
2022-10-23T16:22:44.097Z,99788.38
2022-10-23T16:27:46.798Z,99786.69
2022-10-23T16:32:48.302Z,99774.84
2022-10-23T16:37:49.661Z,99766.47
2022-10-23T16:42:51.029Z,99769.19
2022-10-23T16:47:52.395Z,99758.78
2022-10-23T16:52:55.783Z,99752.97
2022-10-23T16:58:00.365Z,99752.84
2022-10-23T17:03:03.016Z,99750.47
2022-10-23T17:08:04.395Z,99752.06
2022-10-23T17:13:05.757Z,99752.97
2022-10-23T17:18:07.112Z,99737.09
2022-10-23T17:23:08.480Z,99731.53
2022-10-23T17:28:09.842Z,99725.72
2022-10-23T17:33:11.262Z,99727.63
2022-10-23T17:38:17.821Z,99722.53
2022-10-23T17:43:19.189Z,99727.63
2022-10-23T17:48:20.546Z,99709.63
2022-10-23T17:53:21.901Z,99692.94
2022-10-23T17:58:23.470Z,99679.19
2022-10-23T18:03:24.824Z,99698.28
2022-10-23T18:08:26.204Z,99683.47
2022-10-23T18:13:27.591Z,99685.25
2022-10-23T18:18:29.116Z,99678.59
2022-10-23T18:23:30.581Z,99677.66
2022-10-23T18:28:31.992Z,99658.13
2022-10-23T18:33:33.348Z,99656.94
2022-10-23T18:38:35.593Z,99640.00
2022-10-23T18:43:43.610Z,99635.50
2022-10-23T18:48:45.566Z,99637.03
2022-10-23T18:53:47.076Z,99618.34
2022-10-23T18:58:51.894Z,99607.06
2022-10-23T19:03:53.691Z,99588.66
2022-10-23T19:08:55.114Z,99608.03
2022-10-23T19:13:56.496Z,99628.53
2022-10-23T19:19:00.427Z,99621.06
2022-10-23T19:24:03.925Z,99618.78
2022-10-23T19:29:06.461Z,99609.13
2022-10-23T19:34:07.821Z,99597.97
2022-10-23T19:39:09.176Z,99603.06
2022-10-23T19:44:10.632Z,99596.56
2022-10-23T19:49:12.040Z,99573.31
2022-10-23T19:54:13.564Z,99560.19
2022-10-23T19:59:15.571Z,99547.06
2022-10-23T20:04:18.123Z,99549.69
2022-10-23T20:09:19.486Z,99555.56
2022-10-23T20:14:20.885Z,99541.72
2022-10-23T20:19:22.270Z,99528.72
2022-10-23T20:24:23.651Z,99524.91
2022-10-23T20:29:25.038Z,99533.34
2022-10-23T20:34:26.482Z,99519.13
2022-10-23T20:39:29.562Z,99508.84
2022-10-23T20:44:31.020Z,99514.03
2022-10-23T20:49:32.389Z,99527.97
2022-10-23T20:54:35.764Z,99535.47
2022-10-23T20:59:37.133Z,99540.78
2022-10-23T21:04:38.484Z,99568.38
2022-10-23T21:09:39.894Z,99550.84
2022-10-23T21:14:41.269Z,99567.53
2022-10-23T21:19:42.632Z,99564.81
2022-10-23T21:24:43.990Z,99602.22
2022-10-23T21:29:45.349Z,99619.16
2022-10-23T21:34:46.701Z,99647.25
2022-10-23T21:39:48.057Z,99666.53
2022-10-23T21:44:49.416Z,99694.03
2022-10-23T21:49:50.773Z,99705.88
2022-10-23T21:54:52.796Z,99703.34
2022-10-23T21:59:54.219Z,99674.22
2022-10-23T22:04:55.574Z,99714.25
2022-10-23T22:09:56.933Z,99715.69
2022-10-23T22:14:58.413Z,99727.72
2022-10-23T22:19:59.776Z,99729.91
2022-10-23T22:25:01.339Z,99724.69
2022-10-23T22:30:03.664Z,99710.47
2022-10-23T22:35:05.480Z,99688.94
2022-10-23T22:40:08.374Z,99670.19
2022-10-23T22:45:09.925Z,99677.44
2022-10-23T22:50:11.277Z,99666.19
2022-10-23T22:55:12.657Z,99657.06
2022-10-23T23:00:14.389Z,99669.03
2022-10-23T23:05:15.757Z,99660.97
2022-10-23T23:10:17.157Z,99662.97
2022-10-23T23:15:18.578Z,99664.66
2022-10-23T23:20:19.947Z,99652.78
2022-10-23T23:25:21.360Z,99632.28
2022-10-23T23:30:22.720Z,99645.81
2022-10-23T23:35:24.832Z,99644.13
2022-10-23T23:40:26.188Z,99652.69
2022-10-23T23:45:27.597Z,99651.00
2022-10-23T23:50:28.965Z,99647.13
2022-10-23T23:55:30.362Z,99644.63
